Time;durP1;ratioP1;P1;durP2;ratioP2;P2;SDS_P1;SDS_P2;PMS_P1;PMS_P2;Temp;Humidity;BMP_temperature;BMP_pressure;BME280_temperature;BME280_humidity;BME280_pressure;Samples;Min_cycle;Max_cycle;Signal;HPM_P1;HPM_P2
2023/01/08 00:00:31;;;;;;;;;;;;;;;;;;5097013;28;20441;-67
2023/01/08 00:02:57;;;;;;;;;;;;;;;;;;5097919;28;19915;-68
2023/01/08 00:05:23;;;;;;;;;;;;;;;;;;5079219;28;19909;-67
2023/01/08 00:07:49;;;;;;;;;;;;;;;;;;5096852;28;19949;-68
2023/01/08 00:10:15;;;;;;;;;;;;;;;;;;5097337;28;19915;-68
2023/01/08 00:12:41;;;;;;;;;;;;;;;;;;5097237;28;19914;-67
2023/01/08 00:15:06;;;;;;;;;;;;;;;;;;5075013;28;20015;-68
2023/01/08 00:17:32;;;;;;;;;;;;;;;;;;5076869;28;19909;-68
2023/01/08 00:19:58;;;;;;;;;;;;;;;;;;5077085;28;19909;-68
2023/01/08 00:22:24;;;;;;;;;;;;;;;;;;5075083;28;19909;-68
2023/01/08 00:24:50;;;;;;;;;;;;;;;;;;5075466;28;19951;-68
2023/01/08 00:27:16;;;;;;;;;;;;;;;;;;5076732;28;20352;-67
2023/01/08 00:29:42;;;;;;;;;;;;;;;;;;5076231;28;19909;-68
2023/01/08 00:32:08;;;;;;;;;;;;;;;;;;5075326;28;19962;-68
2023/01/08 00:34:34;;;;;;;;;;;;;;;;;;5075203;28;19924;-67
2023/01/08 00:37:00;;;;;;;;;;;;;;;;;;5076116;28;19908;-67
2023/01/08 00:39:26;;;;;;;;;;;;;;;;;;5075233;28;20246;-68
2023/01/08 00:41:52;;;;;;;;;;;;;;;;;;5076445;28;19908;-68
2023/01/08 00:44:18;;;;;;;;;;;;;;;;;;5075928;28;19912;-68
2023/01/08 00:46:44;;;;;;;;;;;;;;;;;;5075935;28;19909;-67
2023/01/08 00:49:10;;;;;;;;;;;;;;;;;;5076340;28;19990;-68
2023/01/08 00:51:36;;;;;;;;;;;;;;;;;;5075950;28;19962;-68
2023/01/08 00:54:02;;;;;;;;;;;;;;;;;;5076157;28;19912;-67
2023/01/08 00:56:28;;;;;;;;;;;;;;;;;;5075048;28;20326;-67
2023/01/08 00:58:54;;;;;;;;;;;;;;;;;;5076136;28;19909;-66
2023/01/08 01:01:20;;;;;;;;;;;;;;;;;;5076136;28;20007;-67
2023/01/08 01:03:46;;;;;;;;;;;;;;;;;;5075878;28;20356;-66
2023/01/08 01:06:12;;;;;;;;;;;;;;;;;;5076054;28;20322;-67
2023/01/08 01:08:37;;;;;;;;;;;;;;;;;;5074715;28;20328;-67
2023/01/08 01:11:03;;;;;;;;;;;;;;;;;;5075571;28;19961;-67
2023/01/08 01:13:29;;;;;;;;;;;;;;;;;;5074631;28;19908;-67
2023/01/08 01:15:55;;;;;;;;;;;;;;;;;;5095761;28;19920;-67
2023/01/08 01:18:21;;;;;;;;;;;;;;;;;;5095712;28;19918;-67
2023/01/08 01:20:47;;;;;;;;;;;;;;;;;;5096210;28;19959;-67
2023/01/08 01:23:13;;;;;;;;;;;;;;;;;;5077677;28;19908;-68
2023/01/08 01:25:39;;;;;;;;;;;;;;;;;;5095359;28;19908;-67
2023/01/08 01:28:05;;;;;;;;;;;;;;;;;;5095728;28;19994;-67
2023/01/08 01:30:31;;;;;;;;;;;;;;;;;;5095791;28;19912;-68
2023/01/08 01:32:57;;;;;;;;;;;;;;;;;;5095253;28;19915;-66
2023/01/08 01:35:23;;;;;;;;;;;;;;;;;;5095536;28;19916;-66
2023/01/08 01:37:49;;;;;;;;;;;;;;;;;;5095625;28;19915;-68
2023/01/08 01:40:15;;;;;;;;;;;;;;;;;;5095283;28;19933;-67
2023/01/08 01:42:42;;;;;;;;;;;;;;;;;;5095417;28;20090;-67
2023/01/08 01:45:08;;;;;;;;;;;;;;;;;;5095472;28;20274;-67
2023/01/08 01:47:34;;;;;;;;;;;;;;;;;;5076885;28;20011;-68
2023/01/08 01:50:00;;;;;;;;;;;;;;;;;;5077186;28;19908;-68
2023/01/08 01:52:27;;;;;;;;;;;;;;;;;;5077160;28;19987;-67
2023/01/08 01:54:53;;;;;;;;;;;;;;;;;;5094749;28;20374;-68
2023/01/08 01:57:19;;;;;;;;;;;;;;;;;;5095217;28;19950;-68
2023/01/08 01:59:44;;;;;;;;;;;;;;;;;;5094293;28;19997;-67
2023/01/08 02:02:10;;;;;;;;;;;;;;;;;;5095268;28;19908;-67
2023/01/08 02:04:36;;;;;;;;;;;;;;;;;;5095031;28;19908;-67
2023/01/08 02:07:02;;;;;;;;;;;;;;;;;;5094873;28;19938;-67
2023/01/08 02:09:28;;;;;;;;;;;;;;;;;;5076810;28;19908;-67
2023/01/08 02:14:39;;;;;;;;;;;;;;;;;;5094263;28;19973;-66
2023/01/08 02:17:05;;;;;;;;;;;;;;;;;;5094812;28;19912;-67
2023/01/08 02:19:31;;;;;;;;;;;;;;;;;;5094791;28;19912;-66
2023/01/08 02:21:58;;;;;;;;;;;;;;;;;;5094507;28;19950;-66
2023/01/08 02:24:24;;;;;;;;;;;;;;;;;;5094711;28;19939;-66
2023/01/08 02:26:50;;;;;;;;;;;;;;;;;;5076514;28;19948;-67
2023/01/08 02:29:16;;;;;;;;;;;;;;;;;;5094244;28;19908;-67
2023/01/08 02:31:42;;;;;;;;;;;;;;;;;;5094615;28;19957;-67
2023/01/08 02:34:07;;;;;;;;;;;;;;;;;;5094442;28;19908;-68
2023/01/08 02:36:33;;;;;;;;;;;;;;;;;;5094064;28;19912;-66
2023/01/08 02:38:59;;;;;;;;;;;;;;;;;;5094993;28;19908;-67
2023/01/08 02:41:25;;;;;;;;;;;;;;;;;;5076359;28;19915;-67
2023/01/08 02:43:51;;;;;;;;;;;;;;;;;;5093959;28;19912;-67
2023/01/08 02:46:17;;;;;;;;;;;;;;;;;;5094395;28;19915;-68
2023/01/08 02:48:43;;;;;;;;;;;;;;;;;;5076185;28;19908;-67
2023/01/08 02:51:09;;;;;;;;;;;;;;;;;;5075798;28;19908;-67
2023/01/08 02:53:36;;;;;;;;;;;;;;;;;;5094264;28;19912;-67
2023/01/08 02:56:01;;;;;;;;;;;;;;;;;;5093846;28;19920;-67
2023/01/08 02:58:27;;;;;;;;;;;;;;;;;;5094230;28;19931;-67
2023/01/08 03:00:53;;;;;;;;;;;;;;;;;;5076276;28;19908;-67
2023/01/08 03:03:19;;;;;;;;;;;;;;;;;;5093726;28;19915;-67
2023/01/08 03:05:45;;;;;;;;;;;;;;;;;;5094418;28;19909;-67
2023/01/08 03:08:11;;;;;;;;;;;;;;;;;;5094082;28;19912;-67
2023/01/08 03:10:37;;;;;;;;;;;;;;;;;;5093493;28;19908;-67
2023/01/08 03:13:03;;;;;;;;;;;;;;;;;;5075908;28;19908;-67
2023/01/08 03:15:29;;;;;;;;;;;;;;;;;;5093656;28;19932;-67
2023/01/08 03:17:55;;;;;;;;;;;;;;;;;;5075590;28;20325;-67
2023/01/08 03:20:21;;;;;;;;;;;;;;;;;;5075837;28;20256;-67
2023/01/08 03:22:47;;;;;;;;;;;;;;;;;;5093941;28;19954;-67
2023/01/08 03:25:13;;;;;;;;;;;;;;;;;;5093635;28;20391;-67
2023/01/08 03:27:39;;;;;;;;;;;;;;;;;;5093890;28;19915;-67
2023/01/08 03:30:05;;;;;;;;;;;;;;;;;;5075722;28;19955;-68
2023/01/08 03:32:31;;;;;;;;;;;;;;;;;;5093493;28;19912;-68
2023/01/08 03:34:57;;;;;;;;;;;;;;;;;;5075636;28;19923;-67
2023/01/08 03:37:23;;;;;;;;;;;;;;;;;;5075661;28;19915;-68
2023/01/08 03:39:49;;;;;;;;;;;;;;;;;;5093558;28;19908;-67
2023/01/08 03:42:15;;;;;;;;;;;;;;;;;;5093818;28;19961;-67
2023/01/08 03:44:41;;;;;;;;;;;;;;;;;;5094057;28;19919;-67
2023/01/08 03:47:06;;;;;;;;;;;;;;;;;;5093247;28;19909;-68
2023/01/08 03:49:32;;;;;;;;;;;;;;;;;;5093775;28;19942;-67
2023/01/08 03:51:58;;;;;;;;;;;;;;;;;;5075528;28;19912;-67
2023/01/08 03:54:24;;;;;;;;;;;;;;;;;;5093143;28;19912;-68
2023/01/08 03:56:50;;;;;;;;;;;;;;;;;;5093696;28;19919;-68
2023/01/08 03:59:16;;;;;;;;;;;;;;;;;;5093555;28;20006;-68
2023/01/08 04:01:42;;;;;;;;;;;;;;;;;;5075026;28;19908;-68
2023/01/08 04:04:08;;;;;;;;;;;;;;;;;;5075371;28;19908;-68
2023/01/08 04:06:34;;;;;;;;;;;;;;;;;;5093312;28;19922;-68
2023/01/08 04:09:00;;;;;;;;;;;;;;;;;;5093812;28;19908;-67
2023/01/08 04:11:26;;;;;;;;;;;;;;;;;;5075345;28;19909;-67
2023/01/08 04:13:52;;;;;;;;;;;;;;;;;;5092846;28;19961;-68
2023/01/08 04:16:18;;;;;;;;;;;;;;;;;;5093493;28;19968;-68
2023/01/08 04:18:44;;;;;;;;;;;;;;;;;;5075285;28;19908;-68
2023/01/08 04:21:10;;;;;;;;;;;;;;;;;;5093178;28;19961;-68
2023/01/08 04:23:36;;;;;;;;;;;;;;;;;;5078484;28;19999;-67
2023/01/08 04:26:02;;;;;;;;;;;;;;;;;;5097083;28;19912;-67
2023/01/08 04:28:27;;;;;;;;;;;;;;;;;;5096557;28;19912;-67
2023/01/08 04:30:53;;;;;;;;;;;;;;;;;;5096879;28;19915;-68
2023/01/08 04:33:19;;;;;;;;;;;;;;;;;;5096822;28;19931;-66
2023/01/08 04:35:45;;;;;;;;;;;;;;;;;;5096348;28;19917;-67
2023/01/08 04:38:11;;;;;;;;;;;;;;;;;;5096806;28;19912;-67
2023/01/08 04:40:37;;;;;;;;;;;;;;;;;;5096752;28;19908;-68
2023/01/08 04:43:03;;;;;;;;;;;;;;;;;;5078243;28;19915;-68
2023/01/08 04:45:29;;;;;;;;;;;;;;;;;;5096639;28;19944;-68
2023/01/08 04:47:55;;;;;;;;;;;;;;;;;;5096567;28;19908;-67
2023/01/08 04:50:21;;;;;;;;;;;;;;;;;;5077997;28;19912;-67
2023/01/08 04:52:47;;;;;;;;;;;;;;;;;;5096543;28;19912;-67
2023/01/08 04:55:13;;;;;;;;;;;;;;;;;;5096390;28;20303;-68
2023/01/08 04:57:39;;;;;;;;;;;;;;;;;;5077846;28;19915;-67
2023/01/08 05:00:05;;;;;;;;;;;;;;;;;;5096395;28;19912;-67
2023/01/08 05:02:31;;;;;;;;;;;;;;;;;;5096314;28;19912;-67
2023/01/08 05:04:57;;;;;;;;;;;;;;;;;;5077676;28;19915;-68
2023/01/08 05:07:23;;;;;;;;;;;;;;;;;;5096208;28;19915;-67
2023/01/08 05:09:49;;;;;;;;;;;;;;;;;;5077670;28;19951;-68
2023/01/08 05:12:15;;;;;;;;;;;;;;;;;;5078005;28;20368;-68
2023/01/08 05:14:41;;;;;;;;;;;;;;;;;;5095791;28;20394;-67
2023/01/08 05:17:07;;;;;;;;;;;;;;;;;;5095800;28;20364;-68
2023/01/08 05:19:32;;;;;;;;;;;;;;;;;;5077859;28;20283;-68
2023/01/08 05:21:58;;;;;;;;;;;;;;;;;;5095969;28;20283;-68
2023/01/08 05:24:24;;;;;;;;;;;;;;;;;;5077344;28;20374;-67
2023/01/08 05:26:50;;;;;;;;;;;;;;;;;;5095878;28;19908;-67
2023/01/08 05:29:16;;;;;;;;;;;;;;;;;;5095805;28;19908;-67
2023/01/08 05:31:42;;;;;;;;;;;;;;;;;;5095553;28;19955;-67
2023/01/08 05:34:08;;;;;;;;;;;;;;;;;;5095588;28;19915;-68
2023/01/08 05:36:34;;;;;;;;;;;;;;;;;;5095644;28;19909;-68
2023/01/08 05:39:00;;;;;;;;;;;;;;;;;;5095470;28;19908;-69
2023/01/08 05:41:26;;;;;;;;;;;;;;;;;;5095466;28;19908;-68
2023/01/08 05:43:52;;;;;;;;;;;;;;;;;;5095480;28;19908;-68
2023/01/08 05:46:18;;;;;;;;;;;;;;;;;;5095163;28;20034;-68
2023/01/08 05:48:44;;;;;;;;;;;;;;;;;;5095453;28;19912;-68
2023/01/08 05:51:10;;;;;;;;;;;;;;;;;;5095930;28;20362;-68
2023/01/08 05:53:36;;;;;;;;;;;;;;;;;;5094876;28;19930;-68
2023/01/08 05:56:02;;;;;;;;;;;;;;;;;;5095213;28;19962;-68
2023/01/08 05:58:28;;;;;;;;;;;;;;;;;;5095211;28;19915;-68
2023/01/08 06:00:54;;;;;;;;;;;;;;;;;;5076561;28;19947;-68
2023/01/08 06:03:20;;;;;;;;;;;;;;;;;;5095145;28;19915;-68
2023/01/08 06:05:46;;;;;;;;;;;;;;;;;;5076856;28;20375;-68
2023/01/08 06:08:12;;;;;;;;;;;;;;;;;;5076556;28;19908;-68
2023/01/08 06:10:38;;;;;;;;;;;;;;;;;;5095057;28;19961;-68
2023/01/08 06:13:03;;;;;;;;;;;;;;;;;;5094551;28;19946;-68
2023/01/08 06:15:29;;;;;;;;;;;;;;;;;;5076640;28;20368;-68
2023/01/08 06:17:56;;;;;;;;;;;;;;;;;;5094901;28;20348;-68
2023/01/08 06:20:22;;;;;;;;;;;;;;;;;;5076219;28;19912;-68
2023/01/08 06:22:47;;;;;;;;;;;;;;;;;;5095099;28;20276;-68
2023/01/08 06:25:13;;;;;;;;;;;;;;;;;;5076570;28;20386;-67
2023/01/08 06:27:39;;;;;;;;;;;;;;;;;;5076134;28;20383;-68
2023/01/08 06:30:05;;;;;;;;;;;;;;;;;;5076492;28;19908;-68
2023/01/08 06:32:31;;;;;;;;;;;;;;;;;;5094611;28;20390;-67
2023/01/08 06:34:57;;;;;;;;;;;;;;;;;;5076041;28;20332;-67
2023/01/08 06:37:23;;;;;;;;;;;;;;;;;;5076421;28;20325;-68
2023/01/08 06:39:49;;;;;;;;;;;;;;;;;;5094519;28;20345;-68
2023/01/08 06:42:15;;;;;;;;;;;;;;;;;;5094122;28;20256;-68
2023/01/08 06:44:41;;;;;;;;;;;;;;;;;;5093972;28;19912;-68
2023/01/08 06:47:07;;;;;;;;;;;;;;;;;;5076228;28;19908;-68
2023/01/08 06:49:33;;;;;;;;;;;;;;;;;;5093899;28;19999;-68
2023/01/08 06:51:59;;;;;;;;;;;;;;;;;;5076159;28;19913;-67
2023/01/08 06:54:25;;;;;;;;;;;;;;;;;;5094243;28;19969;-68
2023/01/08 06:56:51;;;;;;;;;;;;;;;;;;5093804;28;19920;-68
2023/01/08 06:59:17;;;;;;;;;;;;;;;;;;5094182;28;19916;-68
2023/01/08 07:01:43;;;;;;;;;;;;;;;;;;5094200;28;19912;-68
2023/01/08 07:04:09;;;;;;;;;;;;;;;;;;5093723;28;19940;-68
2023/01/08 07:06:35;;;;;;;;;;;;;;;;;;5094194;28;19915;-68
2023/01/08 07:09:01;;;;;;;;;;;;;;;;;;5094059;28;19919;-68
2023/01/08 07:11:27;;;;;;;;;;;;;;;;;;5093689;28;19908;-68
2023/01/08 07:13:52;;;;;;;;;;;;;;;;;;5075709;28;19908;-68
2023/01/08 07:16:18;;;;;;;;;;;;;;;;;;5093696;28;19923;-68
2023/01/08 07:18:44;;;;;;;;;;;;;;;;;;5094023;28;19908;-68
2023/01/08 07:21:10;;;;;;;;;;;;;;;;;;5094002;28;19999;-68
2023/01/08 07:23:37;;;;;;;;;;;;;;;;;;5093547;28;20422;-68
2023/01/08 07:26:03;;;;;;;;;;;;;;;;;;5094031;28;19915;-69
2023/01/08 07:28:29;;;;;;;;;;;;;;;;;;5075975;28;20006;-69
2023/01/08 07:30:55;;;;;;;;;;;;;;;;;;5093439;28;19915;-68
2023/01/08 07:33:21;;;;;;;;;;;;;;;;;;5075980;28;19912;-67
2023/01/08 07:35:46;;;;;;;;;;;;;;;;;;5093714;28;19920;-68
2023/01/08 07:38:12;;;;;;;;;;;;;;;;;;5093455;28;19916;-67
2023/01/08 07:40:38;;;;;;;;;;;;;;;;;;5093833;28;19909;-67
2023/01/08 07:43:05;;;;;;;;;;;;;;;;;;5093774;28;20006;-68
2023/01/08 07:45:31;;;;;;;;;;;;;;;;;;5093364;28;19912;-68
2023/01/08 07:47:57;;;;;;;;;;;;;;;;;;5093742;28;19912;-68
2023/01/08 07:50:23;;;;;;;;;;;;;;;;;;5093793;28;19909;-67
2023/01/08 07:52:49;;;;;;;;;;;;;;;;;;5093387;28;20006;-67
2023/01/08 07:55:15;;;;;;;;;;;;;;;;;;5093563;28;20372;-67
2023/01/08 07:57:41;;;;;;;;;;;;;;;;;;5095961;28;19912;-68
2023/01/08 08:00:07;;;;;;;;;;;;;;;;;;5097495;28;19908;-68
2023/01/08 08:02:33;;;;;;;;;;;;;;;;;;5097685;28;19999;-68
2023/01/08 08:04:59;;;;;;;;;;;;;;;;;;5097426;28;19916;-68
2023/01/08 08:07:25;;;;;;;;;;;;;;;;;;5097015;28;20003;-69
2023/01/08 08:09:51;;;;;;;;;;;;;;;;;;5079183;28;19916;-68
2023/01/08 08:12:17;;;;;;;;;;;;;;;;;;5097391;28;19908;-68
2023/01/08 08:14:43;;;;;;;;;;;;;;;;;;5078460;28;19927;-68
2023/01/08 08:17:09;;;;;;;;;;;;;;;;;;5097165;28;20318;-68
2023/01/08 08:19:35;;;;;;;;;;;;;;;;;;5096696;28;19908;-68
2023/01/08 08:22:01;;;;;;;;;;;;;;;;;;5097076;28;20302;-68
2023/01/08 08:24:27;;;;;;;;;;;;;;;;;;5097101;28;19908;-68
2023/01/08 08:26:53;;;;;;;;;;;;;;;;;;5078438;28;19908;-68
2023/01/08 08:29:19;;;;;;;;;;;;;;;;;;5097061;28;19961;-68
2023/01/08 08:31:45;;;;;;;;;;;;;;;;;;5096948;28;19950;-68
2023/01/08 08:34:11;;;;;;;;;;;;;;;;;;5096878;28;20272;-68
2023/01/08 08:36:37;;;;;;;;;;;;;;;;;;5096884;28;19934;-68
2023/01/08 08:39:03;;;;;;;;;;;;;;;;;;5096804;28;19952;-67
2023/01/08 08:41:29;;;;;;;;;;;;;;;;;;5078214;28;19915;-68
2023/01/08 08:43:55;;;;;;;;;;;;;;;;;;5096695;28;19990;-68
2023/01/08 08:46:21;;;;;;;;;;;;;;;;;;5096644;28;19912;-67
2023/01/08 08:48:46;;;;;;;;;;;;;;;;;;5078139;28;19908;-67
2023/01/08 08:51:12;;;;;;;;;;;;;;;;;;5096515;28;19953;-67
2023/01/08 08:53:38;;;;;;;;;;;;;;;;;;5096507;28;19908;-68
2023/01/08 08:56:04;;;;;;;;;;;;;;;;;;5096029;28;19923;-68
2023/01/08 08:58:30;;;;;;;;;;;;;;;;;;5096396;28;19934;-68
2023/01/08 09:00:56;;;;;;;;;;;;;;;;;;5096445;28;19909;-68
2023/01/08 09:03:22;;;;;;;;;;;;;;;;;;5095960;28;19908;-68
2023/01/08 09:05:48;;;;;;;;;;;;;;;;;;5096236;28;20319;-67
2023/01/08 09:08:14;;;;;;;;;;;;;;;;;;5095906;28;19909;-68
2023/01/08 09:10:41;;;;;;;;;;;;;;;;;;5095877;28;20006;-67
2023/01/08 09:13:07;;;;;;;;;;;;;;;;;;5096449;28;19936;-68
2023/01/08 09:15:33;;;;;;;;;;;;;;;;;;5077762;28;19963;-67
2023/01/08 09:17:58;;;;;;;;;;;;;;;;;;5095703;28;19915;-67
2023/01/08 09:20:24;;;;;;;;;;;;;;;;;;5096055;28;19909;-68
2023/01/08 09:22:50;;;;;;;;;;;;;;;;;;5077909;28;19908;-67
2023/01/08 09:25:16;;;;;;;;;;;;;;;;;;5077853;28;19908;-68
2023/01/08 09:27:42;;;;;;;;;;;;;;;;;;5095898;28;19922;-68
2023/01/08 09:30:08;;;;;;;;;;;;;;;;;;5077245;28;19931;-68
2023/01/08 09:32:34;;;;;;;;;;;;;;;;;;5095754;28;19908;-68
2023/01/08 09:35:00;;;;;;;;;;;;;;;;;;5095660;28;19912;-68
2023/01/08 09:37:26;;;;;;;;;;;;;;;;;;5095239;28;19914;-67
2023/01/08 09:39:52;;;;;;;;;;;;;;;;;;5095667;28;19916;-66
2023/01/08 09:42:18;;;;;;;;;;;;;;;;;;5095630;28;19908;-68
2023/01/08 09:44:44;;;;;;;;;;;;;;;;;;5095162;28;20002;-68
2023/01/08 09:47:10;;;;;;;;;;;;;;;;;;5095466;28;19915;-69
2023/01/08 09:49:37;;;;;;;;;;;;;;;;;;5095469;28;19915;-68
2023/01/08 09:52:03;;;;;;;;;;;;;;;;;;5095047;28;19951;-68
2023/01/08 09:54:29;;;;;;;;;;;;;;;;;;5077092;28;19915;-68
2023/01/08 09:56:55;;;;;;;;;;;;;;;;;;5095309;28;19908;-68
2023/01/08 09:59:21;;;;;;;;;;;;;;;;;;5094895;28;19965;-68
2023/01/08 10:01:47;;;;;;;;;;;;;;;;;;5095401;28;19973;-68
2023/01/08 10:04:13;;;;;;;;;;;;;;;;;;5095105;28;19915;-68
2023/01/08 10:06:39;;;;;;;;;;;;;;;;;;5076486;28;19908;-68
2023/01/08 10:09:05;;;;;;;;;;;;;;;;;;5076931;28;20276;-68
2023/01/08 10:11:31;;;;;;;;;;;;;;;;;;5095273;28;20317;-69
2023/01/08 10:13:57;;;;;;;;;;;;;;;;;;5094429;28;20275;-68
2023/01/08 10:16:23;;;;;;;;;;;;;;;;;;5076607;28;20265;-69
2023/01/08 10:18:48;;;;;;;;;;;;;;;;;;5076657;28;19908;-68
2023/01/08 10:21:14;;;;;;;;;;;;;;;;;;5093790;28;20003;-68
2023/01/08 10:23:40;;;;;;;;;;;;;;;;;;5094888;28;19908;-68
2023/01/08 10:26:06;;;;;;;;;;;;;;;;;;5095085;28;19930;-68
2023/01/08 10:28:35;;;;;;;;;;;;;;;;;;5094313;28;19908;-68
2023/01/08 10:31:01;;;;;;;;;;;;;;;;;;5094716;28;19912;-68
2023/01/08 10:33:27;;;;;;;;;;;;;;;;;;5094231;28;19961;-67
2023/01/08 10:35:53;;;;;;;;;;;;;;;;;;5094534;28;19927;-68
2023/01/08 10:38:19;;;;;;;;;;;;;;;;;;5076307;28;19908;-67
2023/01/08 10:40:45;;;;;;;;;;;;;;;;;;5093977;28;19995;-68
2023/01/08 10:43:11;;;;;;;;;;;;;;;;;;5094548;28;19912;-68
2023/01/08 10:45:37;;;;;;;;;;;;;;;;;;5094382;28;19908;-68
2023/01/08 10:48:03;;;;;;;;;;;;;;;;;;5093956;28;19908;-68
2023/01/08 10:50:29;;;;;;;;;;;;;;;;;;5094489;28;20042;-67
2023/01/08 10:52:55;;;;;;;;;;;;;;;;;;5076177;28;19912;-68
2023/01/08 10:55:21;;;;;;;;;;;;;;;;;;5093945;28;20386;-68
2023/01/08 10:57:47;;;;;;;;;;;;;;;;;;5094296;28;19912;-68
2023/01/08 11:00:13;;;;;;;;;;;;;;;;;;5094241;28;19930;-69
2023/01/08 11:06:26;;;;;;;;;;;;;;;;;;5091448;27;19916;-68
2023/01/08 11:15:02;;;;;;;;;;;;;;;;;;5091636;28;19922;-69
2023/01/08 11:17:28;;;;;;;;;;;;;;;;;;5091005;28;20010;-68
2023/01/08 11:20:33;;;;;;;;;;;;;;;;;;5153261;27;19998;-67
2023/01/08 11:22:59;;;;;;;;;;;;;;;;;;5152514;27;19957;-67
2023/01/08 11:25:25;;;;;;;;;;;;;;;;;;5152838;27;19907;-68
2023/01/08 11:27:51;;;;;;;;;;;;;;;;;;5152897;27;19911;-67
2023/01/08 11:30:17;;;;;;;;;;;;;;;;;;5152399;27;19914;-67
2023/01/08 11:32:43;;;;;;;;;;;;;;;;;;5152755;27;19907;-68
2023/01/08 11:35:25;;;;;;;;;;;;;;;;;;5112246;27;19916;-68
2023/01/08 11:39:34;;;;;;;;;;;;;;;;;;5152928;27;19915;-68
2023/01/08 11:42:00;;;;;;;;;;;;;;;;;;5134400;27;20384;-66
2023/01/08 11:47:49;;;;;;;;;;;;;;;;;;5112073;27;20269;-67
2023/01/08 11:50:15;;;;;;;;;;;;;;;;;;5111900;28;20003;-68
2023/01/08 11:54:37;;;;;;;;;;;;;;;;;;5091492;28;19923;-68
2023/01/08 11:57:03;;;;;;;;;;;;;;;;;;5090107;28;20339;-68
2023/01/08 11:59:28;;;;;;;;;;;;;;;;;;5089722;28;19916;-68
2023/01/08 12:02:07;;;;;;;;;;;;;;;;;;5091539;27;20321;-68
2023/01/08 12:04:33;;;;;;;;;;;;;;;;;;5091672;28;19912;-67
2023/01/08 12:09:45;;;;;;;;;;;;;;;;;;5111886;27;19920;-68
2023/01/08 12:13:02;;;;;;;;;;;;;;;;;;5111763;27;19916;-68
2023/01/08 12:15:28;;;;;;;;;;;;;;;;;;5111800;28;20455;-68
2023/01/08 12:17:54;;;;;;;;;;;;;;;;;;5111725;28;19912;-68
2023/01/08 12:21:59;;;;;;;;;;;;;;;;;;5112504;27;19916;-68
2023/01/08 12:24:25;;;;;;;;;;;;;;;;;;5110628;28;19916;-68
2023/01/08 12:28:52;;;;;;;;;;;;;;;;;;5111888;27;20424;-68
2023/01/08 12:32:28;;;;;;;;;;;;;;;;;;5112290;27;19922;-67
2023/01/08 12:34:54;;;;;;;;;;;;;;;;;;5111249;28;20354;-67
2023/01/08 12:37:20;;;;;;;;;;;;;;;;;;5110362;28;19915;-67
2023/01/08 12:43:30;;;;;;;;;;;;;;;;;;5091715;27;19919;-68
2023/01/08 12:48:14;;;;;;;;;;;;;;;;;;5111612;27;19916;-67
2023/01/08 12:50:40;;;;;;;;;;;;;;;;;;5110465;28;19912;-68
2023/01/08 12:57:14;;;;;;;;;;;;;;;;;;5111961;27;19922;-68
2023/01/08 12:59:40;;;;;;;;;;;;;;;;;;5111657;28;20002;-68
2023/01/08 13:02:40;;;;;;;;;;;;;;;;;;5091167;27;19918;-68
2023/01/08 13:05:06;;;;;;;;;;;;;;;;;;5091382;28;20003;-68
2023/01/08 13:07:32;;;;;;;;;;;;;;;;;;5091311;28;19912;-68
2023/01/08 13:12:02;;;;;;;;;;;;;;;;;;5112072;27;19996;-67
2023/01/08 13:14:28;;;;;;;;;;;;;;;;;;5111795;28;20439;-68
2023/01/08 13:18:33;;;;;;;;;;;;;;;;;;5111815;27;20006;-68
2023/01/08 13:23:01;;;;;;;;;;;;;;;;;;5091430;27;19916;-68
2023/01/08 13:25:27;;;;;;;;;;;;;;;;;;5091734;28;20007;-68
2023/01/08 13:34:30;;;;;;;;;;;;;;;;;;5092277;27;19912;-68
2023/01/08 13:36:56;;;;;;;;;;;;;;;;;;5091002;28;20352;-67
2023/01/08 13:39:22;;;;;;;;;;;;;;;;;;5090087;28;19923;-68
2023/01/08 13:42:06;;;;;;;;;;;;;;;;;;5091789;27;20402;-67
2023/01/08 13:44:35;;;;;;;;;;;;;;;;;;5091243;28;19913;-68
2023/01/08 13:50:29;;;;;;;;;;;;;;;;;;5091653;27;19916;-68
2023/01/08 13:52:55;;;;;;;;;;;;;;;;;;5091430;28;19920;-68
2023/01/08 13:55:21;;;;;;;;;;;;;;;;;;5091384;28;19908;-68
2023/01/08 13:57:47;;;;;;;;;;;;;;;;;;5091303;28;19958;-67
2023/01/08 14:00:13;;;;;;;;;;;;;;;;;;5091343;28;19909;-68
2023/01/08 14:02:39;;;;;;;;;;;;;;;;;;5089780;28;19915;-67
2023/01/08 14:09:37;;;;;;;;;;;;;;;;;;5051293;28;19913;-68
2023/01/08 14:12:03;;;;;;;;;;;;;;;;;;5049424;28;19919;-69
2023/01/08 14:14:29;;;;;;;;;;;;;;;;;;5051090;28;19909;-68
2023/01/08 14:16:56;;;;;;;;;;;;;;;;;;5051073;28;19936;-68
2023/01/08 14:21:46;;;;;;;;;;;;;;;;;;5153157;27;19915;-68
2023/01/08 14:24:12;;;;;;;;;;;;;;;;;;5134450;27;20029;-70
2023/01/08 14:26:38;;;;;;;;;;;;;;;;;;5152490;27;19911;-68
2023/01/08 14:29:20;;;;;;;;;;;;;;;;;;5132672;27;20030;-71
2023/01/08 14:32:31;;;;;;;;;;;;;;;;;;5091556;27;19912;-68
2023/01/08 14:38:06;;;;;;;;;;;;;;;;;;5091796;27;19946;-69
2023/01/08 14:42:41;;;;;;;;;;;;;;;;;;5112019;27;19922;-68
2023/01/08 14:48:20;;;;;;;;;;;;;;;;;;5091133;27;19913;-69
2023/01/08 14:50:46;;;;;;;;;;;;;;;;;;5091400;28;20003;-68
2023/01/08 14:53:13;;;;;;;;;;;;;;;;;;5091275;28;19940;-69
2023/01/08 14:56:25;;;;;;;;;;;;;;;;;;5112087;27;19916;-68
2023/01/08 14:58:53;;;;;;;;;;;;;;;;;;5110470;28;19919;-68
2023/01/08 15:01:19;;;;;;;;;;;;;;;;;;5109966;28;19908;-68
2023/01/08 15:03:45;;;;;;;;;;;;;;;;;;5111700;28;20010;-67
2023/01/08 15:06:33;;;;;;;;;;;;;;;;;;5111977;27;20390;-69
2023/01/08 15:11:22;;;;;;;;;;;;;;;;;;5112377;27;19918;-69
2023/01/08 15:16:36;;;;;;;;;;;;;;;;;;5091144;27;19917;-68
2023/01/08 15:19:02;;;;;;;;;;;;;;;;;;5090189;28;19916;-68
2023/01/08 15:21:28;;;;;;;;;;;;;;;;;;5091474;28;19915;-68
2023/01/08 15:23:54;;;;;;;;;;;;;;;;;;5090882;28;19908;-68
2023/01/08 15:26:20;;;;;;;;;;;;;;;;;;5091392;28;19909;-68
2023/01/08 15:28:46;;;;;;;;;;;;;;;;;;5090823;28;19909;-68
2023/01/08 15:31:12;;;;;;;;;;;;;;;;;;5091146;28;20315;-68
2023/01/08 15:33:38;;;;;;;;;;;;;;;;;;5091151;28;19969;-68
2023/01/08 15:36:04;;;;;;;;;;;;;;;;;;5090612;28;19920;-68
2023/01/08 15:38:30;;;;;;;;;;;;;;;;;;5089746;28;19955;-67
2023/01/08 15:40:56;;;;;;;;;;;;;;;;;;5091327;28;19915;-67
2023/01/08 15:43:22;;;;;;;;;;;;;;;;;;5089324;28;19908;-68
2023/01/08 15:45:50;;;;;;;;;;;;;;;;;;5089629;28;19946;-69
2023/01/08 15:48:16;;;;;;;;;;;;;;;;;;5090874;28;19908;-69
2023/01/08 15:50:41;;;;;;;;;;;;;;;;;;5090444;28;19914;-68
2023/01/08 15:53:07;;;;;;;;;;;;;;;;;;5090766;28;19954;-67
2023/01/08 15:55:33;;;;;;;;;;;;;;;;;;5090922;28;19935;-68
2023/01/08 15:57:59;;;;;;;;;;;;;;;;;;5090292;28;19912;-68
2023/01/08 16:00:25;;;;;;;;;;;;;;;;;;5089372;28;20379;-68
2023/01/08 16:02:51;;;;;;;;;;;;;;;;;;5090609;28;20390;-67
2023/01/08 16:05:17;;;;;;;;;;;;;;;;;;5090140;28;20271;-68
2023/01/08 16:07:46;;;;;;;;;;;;;;;;;;5090465;28;19957;-68
2023/01/08 16:10:12;;;;;;;;;;;;;;;;;;5090421;28;20360;-68
2023/01/08 16:12:38;;;;;;;;;;;;;;;;;;5089982;28;19908;-68
2023/01/08 16:15:06;;;;;;;;;;;;;;;;;;5098592;28;19924;-68
2023/01/08 16:17:33;;;;;;;;;;;;;;;;;;5110658;28;19955;-68
2023/01/08 16:19:59;;;;;;;;;;;;;;;;;;5092007;28;19908;-68
2023/01/08 16:22:25;;;;;;;;;;;;;;;;;;5110569;28;20256;-68
2023/01/08 16:24:51;;;;;;;;;;;;;;;;;;5110390;28;20343;-68
2023/01/08 16:27:17;;;;;;;;;;;;;;;;;;5100815;28;19908;-68
2023/01/08 16:29:43;;;;;;;;;;;;;;;;;;5078560;28;20306;-67
2023/01/08 16:32:09;;;;;;;;;;;;;;;;;;5096457;28;19908;-68
2023/01/08 16:34:35;;;;;;;;;;;;;;;;;;5096786;28;20371;-68
2023/01/08 16:37:01;;;;;;;;;;;;;;;;;;5096808;28;19912;-68
2023/01/08 16:39:27;;;;;;;;;;;;;;;;;;5078156;28;19915;-68
2023/01/08 16:41:53;;;;;;;;;;;;;;;;;;5096619;28;19999;-67
2023/01/08 16:44:19;;;;;;;;;;;;;;;;;;5096580;28;20011;-68
2023/01/08 16:46:45;;;;;;;;;;;;;;;;;;5096051;28;19915;-68
2023/01/08 16:49:11;;;;;;;;;;;;;;;;;;5096533;28;20007;-68
2023/01/08 16:51:37;;;;;;;;;;;;;;;;;;5096368;28;19931;-68
2023/01/08 16:54:03;;;;;;;;;;;;;;;;;;5095899;28;19908;-69
2023/01/08 16:56:29;;;;;;;;;;;;;;;;;;5096287;28;19924;-68
2023/01/08 16:58:55;;;;;;;;;;;;;;;;;;5096342;28;20249;-68
2023/01/08 17:01:21;;;;;;;;;;;;;;;;;;5077776;28;20279;-69
2023/01/08 17:03:46;;;;;;;;;;;;;;;;;;5078015;28;20367;-68
2023/01/08 17:06:12;;;;;;;;;;;;;;;;;;5078015;28;20257;-69
2023/01/08 17:08:40;;;;;;;;;;;;;;;;;;5095646;28;19931;-67
2023/01/08 17:11:06;;;;;;;;;;;;;;;;;;5096083;28;19931;-68
2023/01/08 17:13:31;;;;;;;;;;;;;;;;;;5096028;28;20302;-67
2023/01/08 17:15:57;;;;;;;;;;;;;;;;;;5095259;28;20435;-67
2023/01/08 17:18:23;;;;;;;;;;;;;;;;;;5095909;28;20470;-67
2023/01/08 17:20:49;;;;;;;;;;;;;;;;;;5077677;28;19908;-67
2023/01/08 17:23:15;;;;;;;;;;;;;;;;;;5077271;28;19915;-67
2023/01/08 17:25:41;;;;;;;;;;;;;;;;;;5077554;28;20337;-67
2023/01/08 17:28:07;;;;;;;;;;;;;;;;;;5095639;28;20002;-67
2023/01/08 17:30:33;;;;;;;;;;;;;;;;;;5095503;28;19994;-68
2023/01/08 17:32:59;;;;;;;;;;;;;;;;;;5095633;28;20366;-68
2023/01/08 17:35:25;;;;;;;;;;;;;;;;;;5095191;28;20367;-67
2023/01/08 17:37:51;;;;;;;;;;;;;;;;;;5076429;28;20348;-67
2023/01/08 17:40:17;;;;;;;;;;;;;;;;;;5095450;28;20367;-68
2023/01/08 17:42:43;;;;;;;;;;;;;;;;;;5076832;28;20419;-67
2023/01/08 17:45:09;;;;;;;;;;;;;;;;;;5095400;28;20364;-67
2023/01/08 17:47:36;;;;;;;;;;;;;;;;;;5095566;28;20267;-67
2023/01/08 17:50:04;;;;;;;;;;;;;;;;;;5094938;28;19908;-67
2023/01/08 17:52:30;;;;;;;;;;;;;;;;;;5095248;28;19908;-67
2023/01/08 17:54:56;;;;;;;;;;;;;;;;;;5095161;28;19969;-68